sensor_id;sensor_type;location;lat;lon;timestamp;P1;durP1;ratioP1;P2;durP2;ratioP2
79361;SDS011;68830;47.566;19.012;2023-04-25T00:00:06;0.20;;;0.20;;
79361;SDS011;68830;47.566;19.012;2023-04-25T00:03:08;0.15;;;0.15;;
79361;SDS011;68830;47.566;19.012;2023-04-25T00:06:12;0.10;;;0.10;;
79361;SDS011;68830;47.566;19.012;2023-04-25T00:09:15;0.30;;;0.30;;
79361;SDS011;68830;47.566;19.012;2023-04-25T00:12:17;0.20;;;0.20;;
79361;SDS011;68830;47.566;19.012;2023-04-25T00:15:19;0.20;;;0.20;;
79361;SDS011;68830;47.566;19.012;2023-04-25T00:18:22;0.20;;;0.20;;
79361;SDS011;68830;47.566;19.012;2023-04-25T00:21:24;0.30;;;0.30;;
79361;SDS011;68830;47.566;19.012;2023-04-25T00:24:28;0.20;;;0.20;;
79361;SDS011;68830;47.566;19.012;2023-04-25T00:27:30;0.30;;;0.30;;
79361;SDS011;68830;47.566;19.012;2023-04-25T00:30:32;0.20;;;0.20;;
79361;SDS011;68830;47.566;19.012;2023-04-25T00:33:34;0.32;;;0.32;;
79361;SDS011;68830;47.566;19.012;2023-04-25T00:36:36;0.30;;;0.30;;
79361;SDS011;68830;47.566;19.012;2023-04-25T00:39:39;0.20;;;0.20;;
79361;SDS011;68830;47.566;19.012;2023-04-25T00:42:41;0.10;;;0.10;;
79361;SDS011;68830;47.566;19.012;2023-04-25T00:45:43;0.35;;;0.30;;
79361;SDS011;68830;47.566;19.012;2023-04-25T00:48:48;0.30;;;0.30;;
79361;SDS011;68830;47.566;19.012;2023-04-25T00:51:50;0.40;;;0.40;;
79361;SDS011;68830;47.566;19.012;2023-04-25T00:54:54;0.40;;;0.40;;
79361;SDS011;68830;47.566;19.012;2023-04-25T00:57:56;0.30;;;0.30;;
79361;SDS011;68830;47.566;19.012;2023-04-25T01:00:58;0.30;;;0.30;;
79361;SDS011;68830;47.566;19.012;2023-04-25T01:04:01;0.45;;;0.45;;
79361;SDS011;68830;47.566;19.012;2023-04-25T01:07:03;0.50;;;0.50;;
79361;SDS011;68830;47.566;19.012;2023-04-25T01:10:08;0.50;;;0.50;;
79361;SDS011;68830;47.566;19.012;2023-04-25T01:13:10;0.40;;;0.40;;
79361;SDS011;68830;47.566;19.012;2023-04-25T01:16:12;0.40;;;0.40;;
79361;SDS011;68830;47.566;19.012;2023-04-25T01:19:16;0.50;;;0.50;;
79361;SDS011;68830;47.566;19.012;2023-04-25T01:22:20;0.50;;;0.50;;
79361;SDS011;68830;47.566;19.012;2023-04-25T01:25:23;0.50;;;0.50;;
79361;SDS011;68830;47.566;19.012;2023-04-25T01:28:25;0.52;;;0.52;;
79361;SDS011;68830;47.566;19.012;2023-04-25T01:31:27;0.40;;;0.40;;
79361;SDS011;68830;47.566;19.012;2023-04-25T01:34:29;0.50;;;0.50;;
79361;SDS011;68830;47.566;19.012;2023-04-25T01:37:33;0.32;;;0.32;;
79361;SDS011;68830;47.566;19.012;2023-04-25T01:40:36;0.43;;;0.43;;
79361;SDS011;68830;47.566;19.012;2023-04-25T01:43:41;0.52;;;0.52;;
79361;SDS011;68830;47.566;19.012;2023-04-25T01:46:44;0.38;;;0.38;;
79361;SDS011;68830;47.566;19.012;2023-04-25T01:49:46;0.50;;;0.50;;
79361;SDS011;68830;47.566;19.012;2023-04-25T01:52:49;0.40;;;0.40;;
79361;SDS011;68830;47.566;19.012;2023-04-25T01:55:51;0.95;;;0.50;;
79361;SDS011;68830;47.566;19.012;2023-04-25T01:58:53;0.50;;;0.50;;
79361;SDS011;68830;47.566;19.012;2023-04-25T02:01:55;0.50;;;0.50;;
79361;SDS011;68830;47.566;19.012;2023-04-25T02:04:57;0.40;;;0.40;;
79361;SDS011;68830;47.566;19.012;2023-04-25T02:08:01;0.43;;;0.43;;
79361;SDS011;68830;47.566;19.012;2023-04-25T02:11:06;0.65;;;0.60;;
79361;SDS011;68830;47.566;19.012;2023-04-25T02:14:08;0.35;;;0.35;;
79361;SDS011;68830;47.566;19.012;2023-04-25T02:17:10;0.52;;;0.52;;
79361;SDS011;68830;47.566;19.012;2023-04-25T02:20:14;0.40;;;0.40;;
79361;SDS011;68830;47.566;19.012;2023-04-25T02:23:18;0.50;;;0.50;;
79361;SDS011;68830;47.566;19.012;2023-04-25T02:26:20;0.55;;;0.55;;
79361;SDS011;68830;47.566;19.012;2023-04-25T02:29:22;0.60;;;0.60;;
79361;SDS011;68830;47.566;19.012;2023-04-25T02:32:24;0.50;;;0.50;;
79361;SDS011;68830;47.566;19.012;2023-04-25T02:35:27;0.50;;;0.50;;
79361;SDS011;68830;47.566;19.012;2023-04-25T02:38:30;1.10;;;0.47;;
79361;SDS011;68830;47.566;19.012;2023-04-25T02:41:32;0.60;;;0.60;;
79361;SDS011;68830;47.566;19.012;2023-04-25T02:44:34;0.35;;;0.35;;
79361;SDS011;68830;47.566;19.012;2023-04-25T02:47:35;0.40;;;0.40;;
79361;SDS011;68830;47.566;19.012;2023-04-25T02:50:37;0.60;;;0.60;;
79361;SDS011;68830;47.566;19.012;2023-04-25T02:53:41;0.50;;;0.50;;
79361;SDS011;68830;47.566;19.012;2023-04-25T02:56:43;0.15;;;0.15;;
79361;SDS011;68830;47.566;19.012;2023-04-25T02:59:45;0.47;;;0.47;;
79361;SDS011;68830;47.566;19.012;2023-04-25T03:02:47;0.40;;;0.40;;
79361;SDS011;68830;47.566;19.012;2023-04-25T03:05:49;0.43;;;0.43;;
79361;SDS011;68830;47.566;19.012;2023-04-25T03:08:53;0.40;;;0.40;;
79361;SDS011;68830;47.566;19.012;2023-04-25T03:11:55;0.52;;;0.52;;
79361;SDS011;68830;47.566;19.012;2023-04-25T03:14:57;0.40;;;0.40;;
79361;SDS011;68830;47.566;19.012;2023-04-25T03:17:59;0.20;;;0.20;;
79361;SDS011;68830;47.566;19.012;2023-04-25T03:21:01;0.40;;;0.40;;
79361;SDS011;68830;47.566;19.012;2023-04-25T03:24:05;0.40;;;0.40;;
79361;SDS011;68830;47.566;19.012;2023-04-25T03:27:07;0.20;;;0.20;;
79361;SDS011;68830;47.566;19.012;2023-04-25T03:30:09;0.50;;;0.50;;
79361;SDS011;68830;47.566;19.012;2023-04-25T03:33:11;0.20;;;0.20;;
79361;SDS011;68830;47.566;19.012;2023-04-25T03:36:13;0.38;;;0.38;;
79361;SDS011;68830;47.566;19.012;2023-04-25T03:39:17;0.45;;;0.45;;
79361;SDS011;68830;47.566;19.012;2023-04-25T03:42:19;0.30;;;0.30;;
79361;SDS011;68830;47.566;19.012;2023-04-25T03:45:21;0.40;;;0.40;;
79361;SDS011;68830;47.566;19.012;2023-04-25T03:48:23;0.40;;;0.40;;
79361;SDS011;68830;47.566;19.012;2023-04-25T03:51:27;0.43;;;0.43;;
79361;SDS011;68830;47.566;19.012;2023-04-25T03:54:30;0.47;;;0.47;;
79361;SDS011;68830;47.566;19.012;2023-04-25T03:57:32;0.50;;;0.50;;
79361;SDS011;68830;47.566;19.012;2023-04-25T04:00:34;0.35;;;0.35;;
79361;SDS011;68830;47.566;19.012;2023-04-25T04:03:37;0.20;;;0.20;;
79361;SDS011;68830;47.566;19.012;2023-04-25T04:06:39;0.57;;;0.57;;
79361;SDS011;68830;47.566;19.012;2023-04-25T04:09:43;0.40;;;0.40;;
79361;SDS011;68830;47.566;19.012;2023-04-25T04:12:45;0.40;;;0.40;;
79361;SDS011;68830;47.566;19.012;2023-04-25T04:15:47;0.43;;;0.43;;
79361;SDS011;68830;47.566;19.012;2023-04-25T04:18:52;0.43;;;0.43;;
79361;SDS011;68830;47.566;19.012;2023-04-25T04:21:54;0.45;;;0.45;;
79361;SDS011;68830;47.566;19.012;2023-04-25T04:24:58;0.43;;;0.43;;
79361;SDS011;68830;47.566;19.012;2023-04-25T04:28:00;0.40;;;0.40;;
79361;SDS011;68830;47.566;19.012;2023-04-25T04:31:02;0.40;;;0.40;;
79361;SDS011;68830;47.566;19.012;2023-04-25T04:34:05;0.30;;;0.30;;
79361;SDS011;68830;47.566;19.012;2023-04-25T04:37:07;0.50;;;0.50;;
79361;SDS011;68830;47.566;19.012;2023-04-25T04:40:11;0.30;;;0.30;;
79361;SDS011;68830;47.566;19.012;2023-04-25T04:43:13;0.40;;;0.40;;
79361;SDS011;68830;47.566;19.012;2023-04-25T04:46:16;0.30;;;0.30;;
79361;SDS011;68830;47.566;19.012;2023-04-25T04:49:20;0.30;;;0.30;;
79361;SDS011;68830;47.566;19.012;2023-04-25T04:52:22;0.30;;;0.30;;
79361;SDS011;68830;47.566;19.012;2023-04-25T04:55:25;0.30;;;0.30;;
79361;SDS011;68830;47.566;19.012;2023-04-25T04:58:27;0.35;;;0.35;;
79361;SDS011;68830;47.566;19.012;2023-04-25T05:01:31;0.50;;;0.47;;
79361;SDS011;68830;47.566;19.012;2023-04-25T05:04:33;0.55;;;0.55;;
79361;SDS011;68830;47.566;19.012;2023-04-25T05:07:35;0.47;;;0.47;;
79361;SDS011;68830;47.566;19.012;2023-04-25T05:10:38;0.35;;;0.35;;
79361;SDS011;68830;47.566;19.012;2023-04-25T05:13:41;0.52;;;0.52;;
79361;SDS011;68830;47.566;19.012;2023-04-25T05:16:43;0.40;;;0.40;;
79361;SDS011;68830;47.566;19.012;2023-04-25T05:19:45;0.75;;;0.40;;
79361;SDS011;68830;47.566;19.012;2023-04-25T05:22:47;0.30;;;0.30;;
79361;SDS011;68830;47.566;19.012;2023-04-25T05:25:50;0.32;;;0.32;;
79361;SDS011;68830;47.566;19.012;2023-04-25T05:28:52;0.28;;;0.28;;
79361;SDS011;68830;47.566;19.012;2023-04-25T05:31:54;0.38;;;0.38;;
79361;SDS011;68830;47.566;19.012;2023-04-25T05:34:56;0.35;;;0.35;;
79361;SDS011;68830;47.566;19.012;2023-04-25T05:37:58;0.30;;;0.30;;
79361;SDS011;68830;47.566;19.012;2023-04-25T05:41:02;0.43;;;0.43;;
79361;SDS011;68830;47.566;19.012;2023-04-25T05:44:04;0.50;;;0.50;;
79361;SDS011;68830;47.566;19.012;2023-04-25T05:47:06;0.20;;;0.20;;
79361;SDS011;68830;47.566;19.012;2023-04-25T05:50:08;0.30;;;0.30;;
79361;SDS011;68830;47.566;19.012;2023-04-25T05:53:10;0.50;;;0.50;;
79361;SDS011;68830;47.566;19.012;2023-04-25T05:56:14;0.20;;;0.20;;
79361;SDS011;68830;47.566;19.012;2023-04-25T05:59:15;0.60;;;0.60;;
79361;SDS011;68830;47.566;19.012;2023-04-25T06:02:17;0.32;;;0.32;;
79361;SDS011;68830;47.566;19.012;2023-04-25T06:05:20;0.60;;;0.60;;
79361;SDS011;68830;47.566;19.012;2023-04-25T06:08:22;0.52;;;0.52;;
79361;SDS011;68830;47.566;19.012;2023-04-25T06:11:25;0.52;;;0.52;;
79361;SDS011;68830;47.566;19.012;2023-04-25T06:14:27;0.60;;;0.60;;
79361;SDS011;68830;47.566;19.012;2023-04-25T06:17:30;0.50;;;0.50;;
79361;SDS011;68830;47.566;19.012;2023-04-25T06:20:32;0.35;;;0.35;;
79361;SDS011;68830;47.566;19.012;2023-04-25T06:23:34;0.52;;;0.52;;
79361;SDS011;68830;47.566;19.012;2023-04-25T06:26:37;0.70;;;0.70;;
79361;SDS011;68830;47.566;19.012;2023-04-25T06:29:39;0.60;;;0.60;;
79361;SDS011;68830;47.566;19.012;2023-04-25T06:32:41;0.63;;;0.63;;
79361;SDS011;68830;47.566;19.012;2023-04-25T06:35:43;0.50;;;0.50;;
79361;SDS011;68830;47.566;19.012;2023-04-25T06:38:45;0.63;;;0.63;;
79361;SDS011;68830;47.566;19.012;2023-04-25T06:41:48;0.40;;;0.40;;
79361;SDS011;68830;47.566;19.012;2023-04-25T06:44:50;0.55;;;0.55;;
79361;SDS011;68830;47.566;19.012;2023-04-25T06:47:52;0.43;;;0.43;;
79361;SDS011;68830;47.566;19.012;2023-04-25T06:50:55;0.38;;;0.38;;
79361;SDS011;68830;47.566;19.012;2023-04-25T06:53:58;0.35;;;0.35;;
79361;SDS011;68830;47.566;19.012;2023-04-25T06:57:02;0.50;;;0.50;;
79361;SDS011;68830;47.566;19.012;2023-04-25T07:00:05;0.47;;;0.47;;
79361;SDS011;68830;47.566;19.012;2023-04-25T07:03:10;0.35;;;0.35;;
79361;SDS011;68830;47.566;19.012;2023-04-25T07:06:12;0.70;;;0.70;;
79361;SDS011;68830;47.566;19.012;2023-04-25T07:09:14;0.70;;;0.70;;
79361;SDS011;68830;47.566;19.012;2023-04-25T07:12:18;0.50;;;0.50;;
79361;SDS011;68830;47.566;19.012;2023-04-25T07:15:20;0.55;;;0.55;;
79361;SDS011;68830;47.566;19.012;2023-04-25T07:18:22;0.70;;;0.70;;
79361;SDS011;68830;47.566;19.012;2023-04-25T07:21:24;0.70;;;0.70;;
79361;SDS011;68830;47.566;19.012;2023-04-25T07:24:26;0.70;;;0.70;;
79361;SDS011;68830;47.566;19.012;2023-04-25T07:27:29;0.68;;;0.68;;
79361;SDS011;68830;47.566;19.012;2023-04-25T07:30:31;0.60;;;0.60;;
79361;SDS011;68830;47.566;19.012;2023-04-25T07:33:33;0.38;;;0.38;;
79361;SDS011;68830;47.566;19.012;2023-04-25T07:36:35;0.30;;;0.30;;
79361;SDS011;68830;47.566;19.012;2023-04-25T07:39:37;0.47;;;0.47;;
79361;SDS011;68830;47.566;19.012;2023-04-25T07:42:40;0.50;;;0.50;;
79361;SDS011;68830;47.566;19.012;2023-04-25T07:45:42;0.50;;;0.50;;
79361;SDS011;68830;47.566;19.012;2023-04-25T07:48:44;0.43;;;0.43;;
79361;SDS011;68830;47.566;19.012;2023-04-25T07:51:46;0.30;;;0.30;;
79361;SDS011;68830;47.566;19.012;2023-04-25T07:54:48;0.38;;;0.38;;
79361;SDS011;68830;47.566;19.012;2023-04-25T07:57:52;0.25;;;0.25;;
79361;SDS011;68830;47.566;19.012;2023-04-25T08:00:54;0.50;;;0.50;;
79361;SDS011;68830;47.566;19.012;2023-04-25T08:03:56;0.43;;;0.43;;
79361;SDS011;68830;47.566;19.012;2023-04-25T08:06:58;0.38;;;0.38;;
79361;SDS011;68830;47.566;19.012;2023-04-25T08:10:00;0.13;;;0.13;;
79361;SDS011;68830;47.566;19.012;2023-04-25T08:13:03;0.35;;;0.35;;
79361;SDS011;68830;47.566;19.012;2023-04-25T08:16:05;0.40;;;0.40;;
79361;SDS011;68830;47.566;19.012;2023-04-25T08:19:07;0.77;;;0.77;;
79361;SDS011;68830;47.566;19.012;2023-04-25T08:22:09;0.20;;;0.20;;
79361;SDS011;68830;47.566;19.012;2023-04-25T08:25:11;0.20;;;0.20;;
79361;SDS011;68830;47.566;19.012;2023-04-25T08:28:15;0.40;;;0.40;;
79361;SDS011;68830;47.566;19.012;2023-04-25T08:31:17;0.30;;;0.30;;
79361;SDS011;68830;47.566;19.012;2023-04-25T08:34:19;0.47;;;0.47;;
79361;SDS011;68830;47.566;19.012;2023-04-25T08:37:22;0.20;;;0.20;;
79361;SDS011;68830;47.566;19.012;2023-04-25T08:40:23;0.40;;;0.40;;
79361;SDS011;68830;47.566;19.012;2023-04-25T08:43:33;0.30;;;0.30;;
79361;SDS011;68830;47.566;19.012;2023-04-25T08:46:36;0.30;;;0.30;;
79361;SDS011;68830;47.566;19.012;2023-04-25T08:49:40;0.30;;;0.30;;
79361;SDS011;68830;47.566;19.012;2023-04-25T08:52:47;0.30;;;0.30;;
79361;SDS011;68830;47.566;19.012;2023-04-25T08:55:54;0.40;;;0.40;;
79361;SDS011;68830;47.566;19.012;2023-04-25T08:58:58;0.30;;;0.30;;
79361;SDS011;68830;47.566;19.012;2023-04-25T09:02:02;0.40;;;0.40;;
79361;SDS011;68830;47.566;19.012;2023-04-25T09:05:04;0.10;;;0.10;;
79361;SDS011;68830;47.566;19.012;2023-04-25T09:08:08;0.17;;;0.17;;
79361;SDS011;68830;47.566;19.012;2023-04-25T09:11:10;0.32;;;0.32;;
79361;SDS011;68830;47.566;19.012;2023-04-25T09:14:15;0.30;;;0.30;;
79361;SDS011;68830;47.566;19.012;2023-04-25T09:17:18;0.10;;;0.10;;
79361;SDS011;68830;47.566;19.012;2023-04-25T09:20:20;0.30;;;0.30;;
79361;SDS011;68830;47.566;19.012;2023-04-25T09:23:22;0.20;;;0.20;;
79361;SDS011;68830;47.566;19.012;2023-04-25T09:26:24;0.20;;;0.20;;
79361;SDS011;68830;47.566;19.012;2023-04-25T09:29:32;0.25;;;0.25;;
79361;SDS011;68830;47.566;19.012;2023-04-25T09:32:35;0.30;;;0.30;;
79361;SDS011;68830;47.566;19.012;2023-04-25T09:35:37;0.32;;;0.32;;
79361;SDS011;68830;47.566;19.012;2023-04-25T09:38:41;0.20;;;0.20;;
79361;SDS011;68830;47.566;19.012;2023-04-25T09:41:44;0.25;;;0.25;;
79361;SDS011;68830;47.566;19.012;2023-04-25T09:44:48;0.10;;;0.10;;
79361;SDS011;68830;47.566;19.012;2023-04-25T09:47:50;0.10;;;0.10;;
79361;SDS011;68830;47.566;19.012;2023-04-25T09:51:07;0.10;;;0.10;;
79361;SDS011;68830;47.566;19.012;2023-04-25T09:54:10;0.10;;;0.10;;
79361;SDS011;68830;47.566;19.012;2023-04-25T09:57:13;0.15;;;0.15;;
79361;SDS011;68830;47.566;19.012;2023-04-25T10:00:17;0.45;;;0.45;;
79361;SDS011;68830;47.566;19.012;2023-04-25T10:03:20;0.20;;;0.20;;
79361;SDS011;68830;47.566;19.012;2023-04-25T10:06:27;0.20;;;0.20;;
79361;SDS011;68830;47.566;19.012;2023-04-25T10:09:31;0.00;;;0.00;;
79361;SDS011;68830;47.566;19.012;2023-04-25T10:12:35;0.20;;;0.20;;
79361;SDS011;68830;47.566;19.012;2023-04-25T10:15:40;0.10;;;0.10;;
79361;SDS011;68830;47.566;19.012;2023-04-25T10:18:42;0.00;;;0.00;;
79361;SDS011;68830;47.566;19.012;2023-04-25T10:21:46;0.10;;;0.10;;
79361;SDS011;68830;47.566;19.012;2023-04-25T10:24:52;0.00;;;0.00;;
79361;SDS011;68830;47.566;19.012;2023-04-25T10:27:54;0.38;;;0.20;;
79361;SDS011;68830;47.566;19.012;2023-04-25T10:30:58;0.10;;;0.10;;
79361;SDS011;68830;47.566;19.012;2023-04-25T10:34:01;0.20;;;0.13;;
79361;SDS011;68830;47.566;19.012;2023-04-25T10:37:03;0.10;;;0.10;;
79361;SDS011;68830;47.566;19.012;2023-04-25T10:40:08;0.20;;;0.20;;
79361;SDS011;68830;47.566;19.012;2023-04-25T10:46:36;0.20;;;0.20;;
79361;SDS011;68830;47.566;19.012;2023-04-25T10:49:41;0.10;;;0.10;;
79361;SDS011;68830;47.566;19.012;2023-04-25T10:52:43;0.13;;;0.13;;
79361;SDS011;68830;47.566;19.012;2023-04-25T10:55:51;0.10;;;0.10;;
79361;SDS011;68830;47.566;19.012;2023-04-25T10:59:05;0.10;;;0.10;;
79361;SDS011;68830;47.566;19.012;2023-04-25T11:02:12;0.10;;;0.10;;
79361;SDS011;68830;47.566;19.012;2023-04-25T11:05:20;0.15;;;0.15;;
79361;SDS011;68830;47.566;19.012;2023-04-25T11:08:32;0.20;;;0.20;;
79361;SDS011;68830;47.566;19.012;2023-04-25T11:11:53;0.10;;;0.10;;
79361;SDS011;68830;47.566;19.012;2023-04-25T11:14:58;0.10;;;0.10;;
79361;SDS011;68830;47.566;19.012;2023-04-25T11:18:04;0.10;;;0.10;;
79361;SDS011;68830;47.566;19.012;2023-04-25T11:21:06;0.10;;;0.10;;
79361;SDS011;68830;47.566;19.012;2023-04-25T11:24:08;0.20;;;0.20;;
79361;SDS011;68830;47.566;19.012;2023-04-25T11:27:10;0.10;;;0.10;;
79361;SDS011;68830;47.566;19.012;2023-04-25T11:30:13;0.10;;;0.10;;
79361;SDS011;68830;47.566;19.012;2023-04-25T11:33:22;0.10;;;0.10;;
79361;SDS011;68830;47.566;19.012;2023-04-25T11:36:24;0.10;;;0.10;;
79361;SDS011;68830;47.566;19.012;2023-04-25T11:39:28;0.13;;;0.13;;
79361;SDS011;68830;47.566;19.012;2023-04-25T11:42:31;0.10;;;0.10;;
79361;SDS011;68830;47.566;19.012;2023-04-25T11:45:33;0.10;;;0.10;;
79361;SDS011;68830;47.566;19.012;2023-04-25T11:48:39;0.20;;;0.20;;
79361;SDS011;68830;47.566;19.012;2023-04-25T11:51:42;0.17;;;0.17;;
79361;SDS011;68830;47.566;19.012;2023-04-25T11:54:45;0.00;;;0.00;;
79361;SDS011;68830;47.566;19.012;2023-04-25T11:57:48;0.10;;;0.10;;
79361;SDS011;68830;47.566;19.012;2023-04-25T12:00:51;0.30;;;0.30;;
79361;SDS011;68830;47.566;19.012;2023-04-25T12:03:55;0.13;;;0.13;;
79361;SDS011;68830;47.566;19.012;2023-04-25T12:06:57;0.00;;;0.00;;
79361;SDS011;68830;47.566;19.012;2023-04-25T12:09:59;0.10;;;0.10;;
79361;SDS011;68830;47.566;19.012;2023-04-25T12:13:17;0.10;;;0.10;;
79361;SDS011;68830;47.566;19.012;2023-04-25T12:16:20;0.13;;;0.13;;
79361;SDS011;68830;47.566;19.012;2023-04-25T12:19:23;0.10;;;0.10;;
79361;SDS011;68830;47.566;19.012;2023-04-25T12:22:26;0.10;;;0.10;;
79361;SDS011;68830;47.566;19.012;2023-04-25T12:25:34;0.10;;;0.10;;
79361;SDS011;68830;47.566;19.012;2023-04-25T12:28:37;0.28;;;0.10;;
79361;SDS011;68830;47.566;19.012;2023-04-25T12:31:40;0.10;;;0.10;;
79361;SDS011;68830;47.566;19.012;2023-04-25T12:34:43;0.17;;;0.17;;
79361;SDS011;68830;47.566;19.012;2023-04-25T12:37:46;0.10;;;0.10;;
79361;SDS011;68830;47.566;19.012;2023-04-25T12:40:48;0.17;;;0.17;;
79361;SDS011;68830;47.566;19.012;2023-04-25T12:43:50;0.10;;;0.10;;
79361;SDS011;68830;47.566;19.012;2023-04-25T12:46:52;0.20;;;0.20;;
79361;SDS011;68830;47.566;19.012;2023-04-25T12:49:57;0.30;;;0.30;;
79361;SDS011;68830;47.566;19.012;2023-04-25T12:52:59;0.10;;;0.10;;
79361;SDS011;68830;47.566;19.012;2023-04-25T12:56:03;0.17;;;0.17;;
79361;SDS011;68830;47.566;19.012;2023-04-25T12:59:05;0.13;;;0.13;;
79361;SDS011;68830;47.566;19.012;2023-04-25T13:02:07;0.13;;;0.13;;
79361;SDS011;68830;47.566;19.012;2023-04-25T13:05:11;0.20;;;0.20;;
79361;SDS011;68830;47.566;19.012;2023-04-25T13:08:14;0.10;;;0.10;;
79361;SDS011;68830;47.566;19.012;2023-04-25T13:11:15;0.30;;;0.30;;
79361;SDS011;68830;47.566;19.012;2023-04-25T13:14:18;0.20;;;0.20;;
79361;SDS011;68830;47.566;19.012;2023-04-25T13:17:19;0.20;;;0.20;;
79361;SDS011;68830;47.566;19.012;2023-04-25T13:20:23;0.15;;;0.15;;
79361;SDS011;68830;47.566;19.012;2023-04-25T13:23:25;0.20;;;0.20;;
79361;SDS011;68830;47.566;19.012;2023-04-25T13:26:28;0.17;;;0.17;;
79361;SDS011;68830;47.566;19.012;2023-04-25T13:29:30;0.10;;;0.10;;
79361;SDS011;68830;47.566;19.012;2023-04-25T13:32:33;0.22;;;0.22;;
79361;SDS011;68830;47.566;19.012;2023-04-25T13:35:37;0.10;;;0.10;;
79361;SDS011;68830;47.566;19.012;2023-04-25T13:38:39;0.03;;;0.03;;
79361;SDS011;68830;47.566;19.012;2023-04-25T13:41:43;0.20;;;0.20;;
79361;SDS011;68830;47.566;19.012;2023-04-25T13:44:45;0.15;;;0.15;;
79361;SDS011;68830;47.566;19.012;2023-04-25T13:47:47;0.13;;;0.13;;
79361;SDS011;68830;47.566;19.012;2023-04-25T13:50:51;0.15;;;0.15;;
79361;SDS011;68830;47.566;19.012;2023-04-25T13:53:52;0.25;;;0.25;;
79361;SDS011;68830;47.566;19.012;2023-04-25T13:56:54;0.25;;;0.20;;
79361;SDS011;68830;47.566;19.012;2023-04-25T13:59:59;0.03;;;0.03;;
79361;SDS011;68830;47.566;19.012;2023-04-25T14:03:06;0.20;;;0.20;;
79361;SDS011;68830;47.566;19.012;2023-04-25T14:09:15;0.20;;;0.20;;
79361;SDS011;68830;47.566;19.012;2023-04-25T14:12:18;0.20;;;0.20;;
79361;SDS011;68830;47.566;19.012;2023-04-25T14:15:22;0.10;;;0.10;;
79361;SDS011;68830;47.566;19.012;2023-04-25T14:18:24;0.10;;;0.10;;
79361;SDS011;68830;47.566;19.012;2023-04-25T14:21:27;0.20;;;0.20;;
79361;SDS011;68830;47.566;19.012;2023-04-25T14:24:30;0.22;;;0.22;;
79361;SDS011;68830;47.566;19.012;2023-04-25T14:27:32;0.30;;;0.30;;
79361;SDS011;68830;47.566;19.012;2023-04-25T14:30:34;0.10;;;0.10;;
79361;SDS011;68830;47.566;19.012;2023-04-25T14:33:36;0.17;;;0.17;;
79361;SDS011;68830;47.566;19.012;2023-04-25T14:36:42;0.13;;;0.13;;
79361;SDS011;68830;47.566;19.012;2023-04-25T14:39:44;0.20;;;0.20;;
79361;SDS011;68830;47.566;19.012;2023-04-25T14:42:46;0.10;;;0.10;;
79361;SDS011;68830;47.566;19.012;2023-04-25T14:45:48;0.30;;;0.30;;
79361;SDS011;68830;47.566;19.012;2023-04-25T14:48:50;0.20;;;0.20;;
79361;SDS011;68830;47.566;19.012;2023-04-25T14:51:54;0.10;;;0.10;;
79361;SDS011;68830;47.566;19.012;2023-04-25T14:54:56;0.13;;;0.13;;
79361;SDS011;68830;47.566;19.012;2023-04-25T14:57:58;0.20;;;0.20;;
79361;SDS011;68830;47.566;19.012;2023-04-25T15:01:00;0.20;;;0.20;;
79361;SDS011;68830;47.566;19.012;2023-04-25T15:04:02;0.10;;;0.10;;
79361;SDS011;68830;47.566;19.012;2023-04-25T15:07:06;0.10;;;0.10;;
79361;SDS011;68830;47.566;19.012;2023-04-25T15:10:08;0.20;;;0.20;;
79361;SDS011;68830;47.566;19.012;2023-04-25T15:13:15;0.17;;;0.17;;
79361;SDS011;68830;47.566;19.012;2023-04-25T15:16:17;0.20;;;0.20;;
79361;SDS011;68830;47.566;19.012;2023-04-25T15:19:19;0.20;;;0.20;;
79361;SDS011;68830;47.566;19.012;2023-04-25T15:22:23;0.20;;;0.20;;
79361;SDS011;68830;47.566;19.012;2023-04-25T15:25:25;0.32;;;0.32;;
79361;SDS011;68830;47.566;19.012;2023-04-25T15:28:29;0.10;;;0.10;;
79361;SDS011;68830;47.566;19.012;2023-04-25T15:31:32;0.20;;;0.20;;
79361;SDS011;68830;47.566;19.012;2023-04-25T15:34:34;0.10;;;0.10;;
79361;SDS011;68830;47.566;19.012;2023-04-25T15:37:38;0.10;;;0.10;;
79361;SDS011;68830;47.566;19.012;2023-04-25T15:40:41;0.20;;;0.20;;
79361;SDS011;68830;47.566;19.012;2023-04-25T15:43:46;0.20;;;0.20;;
79361;SDS011;68830;47.566;19.012;2023-04-25T15:46:50;0.20;;;0.20;;
79361;SDS011;68830;47.566;19.012;2023-04-25T15:49:55;0.10;;;0.10;;
79361;SDS011;68830;47.566;19.012;2023-04-25T15:52:58;0.13;;;0.13;;
79361;SDS011;68830;47.566;19.012;2023-04-25T15:56:00;0.30;;;0.30;;
79361;SDS011;68830;47.566;19.012;2023-04-25T15:59:04;0.35;;;0.35;;
79361;SDS011;68830;47.566;19.012;2023-04-25T16:02:06;0.20;;;0.20;;
79361;SDS011;68830;47.566;19.012;2023-04-25T16:05:10;0.20;;;0.20;;
79361;SDS011;68830;47.566;19.012;2023-04-25T16:08:15;0.22;;;0.22;;
79361;SDS011;68830;47.566;19.012;2023-04-25T16:11:17;0.30;;;0.30;;
79361;SDS011;68830;47.566;19.012;2023-04-25T16:14:19;0.10;;;0.10;;
79361;SDS011;68830;47.566;19.012;2023-04-25T16:17:21;0.20;;;0.20;;
79361;SDS011;68830;47.566;19.012;2023-04-25T16:20:24;0.20;;;0.20;;
79361;SDS011;68830;47.566;19.012;2023-04-25T16:23:27;0.20;;;0.20;;
79361;SDS011;68830;47.566;19.012;2023-04-25T16:26:29;0.20;;;0.20;;
79361;SDS011;68830;47.566;19.012;2023-04-25T16:29:31;0.25;;;0.25;;
79361;SDS011;68830;47.566;19.012;2023-04-25T16:32:33;0.20;;;0.20;;
79361;SDS011;68830;47.566;19.012;2023-04-25T16:35:36;0.40;;;0.40;;
79361;SDS011;68830;47.566;19.012;2023-04-25T16:38:39;0.30;;;0.30;;
79361;SDS011;68830;47.566;19.012;2023-04-25T16:41:41;0.25;;;0.25;;
79361;SDS011;68830;47.566;19.012;2023-04-25T16:44:43;0.10;;;0.10;;
79361;SDS011;68830;47.566;19.012;2023-04-25T16:47:45;0.22;;;0.22;;
79361;SDS011;68830;47.566;19.012;2023-04-25T16:50:47;0.28;;;0.28;;
79361;SDS011;68830;47.566;19.012;2023-04-25T16:53:51;0.30;;;0.30;;
79361;SDS011;68830;47.566;19.012;2023-04-25T16:56:53;0.45;;;0.40;;
79361;SDS011;68830;47.566;19.012;2023-04-25T16:59:55;0.20;;;0.20;;
79361;SDS011;68830;47.566;19.012;2023-04-25T17:02:57;0.30;;;0.30;;
79361;SDS011;68830;47.566;19.012;2023-04-25T17:06:00;0.30;;;0.30;;
79361;SDS011;68830;47.566;19.012;2023-04-25T17:09:04;0.30;;;0.30;;
79361;SDS011;68830;47.566;19.012;2023-04-25T17:12:07;0.30;;;0.30;;
79361;SDS011;68830;47.566;19.012;2023-04-25T17:15:09;0.43;;;0.43;;
79361;SDS011;68830;47.566;19.012;2023-04-25T17:18:11;0.30;;;0.30;;
79361;SDS011;68830;47.566;19.012;2023-04-25T17:21:14;0.30;;;0.30;;
79361;SDS011;68830;47.566;19.012;2023-04-25T17:24:17;0.20;;;0.20;;
79361;SDS011;68830;47.566;19.012;2023-04-25T17:27:22;0.20;;;0.20;;
79361;SDS011;68830;47.566;19.012;2023-04-25T17:30:24;0.50;;;0.40;;
79361;SDS011;68830;47.566;19.012;2023-04-25T17:33:29;0.20;;;0.20;;
79361;SDS011;68830;47.566;19.012;2023-04-25T17:36:32;0.40;;;0.40;;
79361;SDS011;68830;47.566;19.012;2023-04-25T17:39:48;0.20;;;0.20;;
79361;SDS011;68830;47.566;19.012;2023-04-25T17:42:51;0.30;;;0.30;;
79361;SDS011;68830;47.566;19.012;2023-04-25T17:45:53;0.52;;;0.40;;
79361;SDS011;68830;47.566;19.012;2023-04-25T17:48:55;0.30;;;0.30;;
79361;SDS011;68830;47.566;19.012;2023-04-25T17:52:02;0.22;;;0.22;;
79361;SDS011;68830;47.566;19.012;2023-04-25T17:55:06;0.32;;;0.32;;
79361;SDS011;68830;47.566;19.012;2023-04-25T17:58:10;0.10;;;0.10;;
79361;SDS011;68830;47.566;19.012;2023-04-25T18:01:21;0.20;;;0.20;;
79361;SDS011;68830;47.566;19.012;2023-04-25T18:04:24;0.10;;;0.10;;
79361;SDS011;68830;47.566;19.012;2023-04-25T18:07:27;0.52;;;0.52;;
79361;SDS011;68830;47.566;19.012;2023-04-25T18:10:32;0.30;;;0.30;;